Latest Coastal Weather Observations for Marion Reef

IDQ60701

Issued at 10:25 am EST Wednesday 24 September 2014 (issued every 10 minutes, with the page automatically refreshed every 10 minutes)

About coastal observations | Map of coastal stations | Coastal observations for QLD | Marine services | Other Formats
Station Details ID: 200704 Name: MARION REEF Lat: -19.10 Lon: 152.39 Height: 2.0 m
Data from the previous 72 hours. | See also: Recent months for locations in Queensland
Date/Time
EST
Temp

°C
Wind Pressure Rain
since 9am
mm
Weather Cloud Vis
km
Sea
Height
m
Swell
Dir
 
Speed
knots
Gust
knots
hPa Trend Height
m
Period
s
Dir
24/10:00am 22.9 ESE 17 19 1019.6 - - - - - - - - -
24/09:30am 21.8 ENE 15 19 1020.0 - - - - - - - - -
24/09:00am 22.5 E 19 22 1020.0 - - - - - - - - -
24/08:30am 23.2 ESE 17 19 1019.8 - - - - - - - - -
24/08:00am 22.8 ESE 20 22 1019.5 - - - - - - - - -
24/07:30am 21.9 E 17 20 1019.6 - - - - - - - - -
24/07:00am 22.2 E 20 23 1019.2 - - - - - - - - -
24/06:56am 22.4 E 20 23 1019.3 - - - - - - - - -
24/06:30am 23.0 ESE 18 22 1018.8 - - - - - - - - -
24/06:00am 23.4 ESE 19 22 1018.2 - - - - - - - - -
24/05:30am 23.5 E 18 21 1018.1 - - - - - - - - -
24/05:00am 23.3 ESE 17 19 1017.9 - - - - - - - - -
24/04:30am 23.3 ESE 15 19 1017.9 - - - - - - - - -
24/04:00am 23.2 E 17 19 1017.5 - - - - - - - - -
24/03:30am 23.0 ESE 14 18 1017.6 - - - - - - - - -
24/03:00am 22.8 ESE 17 20 1017.6 - - - - - - - - -
24/02:30am 22.8 ESE 16 19 1017.7 - - - - - - - - -
24/02:00am 22.3 ESE 18 21 1017.7 - - - - - - - - -
24/01:30am 22.8 ESE 19 24 1018.0 - - - - - - - - -
24/01:00am 23.1 ESE 19 20 1017.8 - - - - - - - - -
24/12:30am 23.0 ESE 17 20 1018.5 - - - - - - - - -
24/12:00am 23.4 E 17 20 1018.7 - - - - - - - - -
 
Date/Time
EST
Temp

°C
Wind Pressure Rain
since 9am
mm
Weather Cloud Vis
km
Sea
Height
m
Swell
Dir
 
Speed
knots
Gust
knots
hPa Trend Height
m
Period
s
Dir
23/11:30pm 23.3 E 17 20 1019.2 - - - - - - - - -
23/11:00pm 23.4 E 17 21 1019.4 - - - - - - - - -
23/10:30pm 23.3 E 20 24 1019.6 - - - - - - - - -
23/10:00pm 23.5 E 21 25 1019.5 - - - - - - - - -
23/09:30pm 23.3 E 22 25 1019.6 - - - - - - - - -
23/09:00pm 23.7 E 19 23 1019.4 - - - - - - - - -
23/08:30pm 23.2 E 20 24 1019.4 - - - - - - - - -
23/08:00pm 23.2 E 19 24 1019.1 - - - - - - - - -
23/07:30pm 23.4 E 19 25 1018.8 - - - - - - - - -
23/07:00pm 23.3 E 19 23 1018.9 - - - - - - - - -
23/06:30pm 23.4 E 20 24 1018.5 - - - - - - - - -
23/06:00pm 23.1 E 20 24 1018.1 - - - - - - - - -
23/05:30pm 23.0 E 21 25 1017.8 - - - - - - - - -
23/05:00pm 23.2 E 19 22 1017.4 - - - - - - - - -
23/04:30pm 23.0 E 19 21 1017.2 - - - - - - - - -
23/04:00pm 23.4 E 17 20 1017.7 - - - - - - - - -
23/03:30pm 23.1 E 18 21 1017.4 - - - - - - - - -
23/03:00pm 23.2 E 19 21 1017.4 - - - - - - - - -
23/02:30pm 23.4 E 17 21 1017.4 - - - - - - - - -
23/02:00pm 23.5 E 20 25 1017.2 - - - - - - - - -
23/01:30pm 22.9 ENE 22 25 1017.3 - - - - - - - - -
23/01:00pm 23.3 ENE 20 24 1017.6 - - - - - - - - -
23/12:30pm 23.1 E 17 21 1018.5 - - - - - - - - -
23/12:00pm 23.0 E 22 25 1018.3 - - - - - - - - -
23/11:30am 23.2 E 19 23 1019.0 - - - - - - - - -
23/11:00am 23.6 E 20 27 1019.3 - - - - - - - - -
23/10:30am 23.2 E 21 25 1019.8 - - - - - - - - -
23/10:00am 23.3 E 21 24 1019.7 - - - - - - - - -
23/09:30am 23.2 E 20 23 1019.8 - - - - - - - - -
23/09:00am 23.2 E 21 24 1019.9 - - - - - - - - -
23/08:30am 23.3 E 20 23 1019.9 - - - - - - - - -
23/08:00am 22.8 E 20 25 1019.7 - - - - - - - - -
23/07:30am 22.7 E 20 23 1019.4 - - - - - - - - -
23/07:00am 22.5 E 22 - 1018.6 - - - - - - - - -
23/06:30am 23.2 E 18 21 1018.6 - - - - - - - - -
23/06:00am 23.1 E 20 23 1018.4 - - - - - - - - -
23/05:30am 22.5 ESE 20 23 1018.0 - - - - - - - - -
23/05:00am 22.5 E 20 24 1017.9 - - - - - - - - -
23/04:30am 22.7 E 21 25 1017.6 - - - - - - - - -
23/04:00am 22.5 E 20 24 1017.0 - - - - - - - - -
23/03:30am 22.6 E 22 25 1016.4 - - - - - - - - -
23/03:00am 22.7 E 21 25 1016.3 - - - - - - - - -
23/02:30am 22.8 E 21 25 1016.4 - - - - - - - - -
23/02:00am 23.0 E 22 27 1016.4 - - - - - - - - -
23/01:30am 22.6 E 21 25 1017.2 - - - - - - - - -
23/01:00am 22.7 E 21 26 1017.4 - - - - - - - - -
23/12:30am 22.4 E 21 25 1017.8 - - - - - - - - -
23/12:00am 22.8 ESE 22 25 1017.9 - - - - - - - - -
 
Date/Time
EST
Temp

°C
Wind Pressure Rain
since 9am
mm
Weather Cloud Vis
km
Sea
Height
m
Swell
Dir
 
Speed
knots
Gust
knots
hPa Trend Height
m
Period
s
Dir
22/11:30pm 21.8 E 21 25 1018.3 - - - - - - - - -
22/11:00pm 22.0 E 22 28 1018.9 - - - - - - - - -
22/10:30pm 23.4 ESE 21 25 1019.0 - - - - - - - - -
22/10:00pm 22.9 ESE 23 26 1018.9 - - - - - - - - -
22/09:30pm 23.3 ESE 21 24 1019.0 - - - - - - - - -
22/09:00pm 23.1 E 20 23 1018.7 - - - - - - - - -
22/08:30pm 22.7 ESE 22 26 1018.7 - - - - - - - - -
22/08:00pm 23.1 ESE 22 25 1018.5 - - - - - - - - -
22/07:30pm 23.0 SE 22 25 1018.6 - - - - - - - - -
22/07:00pm 23.0 ESE 21 25 1018.3 - - - - - - - - -
22/06:30pm 22.7 SE 22 24 1017.8 - - - - - - - - -
22/06:00pm 23.1 ESE 19 23 1017.5 - - - - - - - - -
22/05:30pm 22.6 ESE 21 25 1017.2 - - - - - - - - -
22/05:00pm 22.1 ESE 23 25 1016.6 - - - - - - - - -
22/04:30pm 22.0 E 25 29 1016.5 - - - - - - - - -
22/04:00pm 22.9 ESE 24 27 1016.2 - - - - - - - - -
22/03:30pm 23.5 ESE 21 25 1016.1 - - - - - - - - -
22/03:00pm 23.2 ESE 22 26 1015.7 - - - - - - - - -
22/02:30pm 23.5 ESE 22 25 1015.8 - - - - - - - - -
22/02:00pm 23.2 ESE 22 26 1016.0 - - - - - - - - -
22/01:30pm 23.4 ESE 22 26 1016.3 - - - - - - - - -
22/01:00pm 23.4 ESE 24 26 1016.5 - - - - - - - - -
22/12:30pm 23.3 ESE 24 27 1017.0 - - - - - - - - -
22/12:00pm 23.2 E 24 27 1017.2 - - - - - - - - -
22/11:30am 23.4 E 23 27 1017.7 - - - - - - - - -
22/11:00am 23.2 ESE 23 27 1018.0 - - - - - - - - -
22/10:30am 23.2 E 23 27 1018.6 - - - - - - - - -
22/10:00am 23.3 ESE 22 25 1018.8 - - - - - - - - -
22/09:30am 23.3 E 23 26 1019.0 - - - - - - - - -
22/09:00am 23.1 E 22 26 1018.8 - - - - - - - - -
22/08:30am 23.2 ESE 23 27 1018.8 - - - - - - - - -
22/08:00am 22.9 ESE 24 28 1018.6 - - - - - - - - -
22/07:30am 23.0 ESE 24 28 1018.5 - - - - - - - - -
22/07:00am 22.9 ESE 25 29 1017.9 - - - - - - - - -
22/06:30am 23.0 ESE 25 29 1017.7 - - - - - - - - -
22/06:00am 23.0 E 24 27 1017.3 - - - - - - - - -
22/05:30am 23.1 E 24 27 1016.8 - - - - - - - - -
22/05:00am 23.1 E 24 27 1016.7 - - - - - - - - -
22/04:30am 23.1 ESE 24 29 1016.8 - - - - - - - - -
22/04:00am 23.0 E 23 27 1016.6 - - - - - - - - -
22/03:30am 23.1 ESE 23 27 1016.6 - - - - - - - - -
22/03:00am 23.0 E 23 29 1016.6 - - - - - - - - -
22/02:30am 23.1 E 23 28 1016.9 - - - - - - - - -
22/02:00am 23.0 ESE 24 29 1017.2 - - - - - - - - -
22/01:30am 23.0 ESE 24 29 1017.6 - - - - - - - - -
22/01:00am 23.1 E 24 29 1017.7 - - - - - - - - -
22/12:30am 23.0 E 26 31 1017.9 - - - - - - - - -
22/12:00am 23.0 E 25 31 1018.2 - - - - - - - - -
 
Date/Time
EST
Temp

°C
Wind Pressure Rain
since 9am
mm
Weather Cloud Vis
km
Sea
Height
m
Swell
Dir
 
Speed
knots
Gust
knots
hPa Trend Height
m
Period
s
Dir
21/11:30pm 23.2 E 26 30 1018.6 - - - - - - - - -
21/11:00pm 23.1 E 26 31 1019.0 - - - - - - - - -
21/10:30pm 23.3 E 26 30 1019.2 - - - - - - - - -
21/10:00pm 23.3 E 25 30 1019.1 - - - - - - - - -
21/09:30pm 23.2 ESE 26 31 1019.2 - - - - - - - - -
21/09:00pm 23.3 ESE 24 31 1019.1 - - - - - - - - -
21/08:30pm 23.5 E 25 30 1019.0 - - - - - - - - -
21/08:00pm 23.2 ESE 25 29 1018.7 - - - - - - - - -
21/07:30pm 23.3 ESE 26 31 1018.5 - - - - - - - - -
21/07:00pm 23.5 ESE 26 33 1017.9 - - - - - - - - -
21/06:30pm 23.1 ESE 25 30 1017.5 - - - - - - - - -
21/06:00pm 23.3 ESE 26 31 1017.2 - - - - - - - - -
21/05:30pm 23.2 E 24 27 1017.2 - - - - - - - - -
21/05:00pm 23.3 E 26 30 1017.0 - - - - - - - - -
21/04:30pm 23.4 E 27 31 1017.0 - - - - - - - - -
21/04:00pm 23.3 E 27 32 1016.7 - - - - - - - - -
21/03:30pm 23.1 ESE 26 30 1016.8 - - - - - - - - -
21/03:00pm 23.4 E 27 32 1016.6 - - - - - - - - -
21/02:30pm 23.2 ESE 26 31 1016.7 - - - - - - - - -
21/02:00pm 23.1 ESE 25 30 1016.8 - - - - - - - - -
21/01:30pm 23.2 ESE 24 30 1017.4 - - - - - - - - -
21/01:00pm 23.2 ESE 23 29 1017.5 - - - - - - - - -
21/12:30pm 23.2 ESE 23 28 1018.1 - - - - - - - - -
21/12:00pm 23.1 ESE 24 28 1018.2 - - - - - - - - -
21/11:30am 23.1 ESE 25 30 1018.6 - - - - - - - - -
21/11:00am 23.3 ESE 24 28 1018.8 - - - - - - - - -
21/10:30am 23.3 E 24 28 1019.3 - - - - - - - - -

Other Formats:

Comma delimited format used in spreadsheet applications
http://www.bom.gov.au/fwo/IDQ60701/IDQ60701.94298.axf

JavaScript Object Notation format (JSON) in row-major order
http://www.bom.gov.au/fwo/IDQ60701/IDQ60701.94298.json